BAW94HG EDDH-EGLL
Flight info
| Callsign | BAW94HG |
|---|---|
| Flight time | 1h 12m |
| Altitude | 38000 |
| Route | WSN5G/33 WSN N125 ITMIZ DCT ABNED L980 LOGAN |
| Aircraft | A319/M-SDE3FGHIRWY/LB1 |
Departure
| Time | 2026-05-04 15:42 |
|---|---|
| Airport | Hamburg Helmut Schmidt Airport (EDDH) |
Arrival
| Time | 2026-05-04 16:55 |
|---|---|
| Airport | London Heathrow Airport (EGLL) |
| Time | Latitude | Longitude | Altitude | Speed | Heading |
|---|---|---|---|---|---|
| 2026-05-04 15:05 | 53.63075 | 10.00374 | 51 ft | 0 kts | 98° |
| 2026-05-04 15:33 | 53.63081 | 10.00313 | 47 ft | 4 kts | 100° |
| 2026-05-04 15:34 | 53.63115 | 10.00257 | 48 ft | 0 kts | 175° |
| 2026-05-04 15:36 | 53.63103 | 10.00259 | 48 ft | 7 kts | 174° |
| 2026-05-04 15:36 | 53.63043 | 10.00234 | 51 ft | 10 kts | 212° |
| 2026-05-04 15:37 | 53.63005 | 10.00192 | 51 ft | 0 kts | 213° |
| 2026-05-04 15:37 | 53.63004 | 10.00191 | 51 ft | 1 kts | 213° |
| 2026-05-04 15:38 | 53.62991 | 10.00178 | 49 ft | 5 kts | 212° |
| 2026-05-04 15:38 | 53.62952 | 10.00137 | 51 ft | 8 kts | 212° |
| 2026-05-04 15:38 | 53.62900 | 10.00082 | 49 ft | 7 kts | 212° |
| 2026-05-04 15:38 | 53.62872 | 10.00046 | 49 ft | 3 kts | 226° |
| 2026-05-04 15:39 | 53.62851 | 10.00010 | 50 ft | 5 kts | 219° |
| 2026-05-04 15:39 | 53.62818 | 9.99976 | 48 ft | 0 kts | 211° |
| 2026-05-04 15:40 | 53.62815 | 9.99973 | 48 ft | 3 kts | 211° |
| 2026-05-04 15:40 | 53.62767 | 9.99927 | 49 ft | 13 kts | 208° |
| 2026-05-04 15:40 | 53.62750 | 9.99841 | 47 ft | 11 kts | 327° |
| 2026-05-04 15:40 | 53.62821 | 9.99781 | 49 ft | 12 kts | 332° |
| 2026-05-04 15:41 | 53.62892 | 9.99720 | 50 ft | 7 kts | 333° |
| 2026-05-04 15:41 | 53.62897 | 9.99717 | 50 ft | 0 kts | 334° |
| 2026-05-04 15:41 | 53.62904 | 9.99711 | 50 ft | 7 kts | 333° |
| 2026-05-04 15:41 | 53.63093 | 9.99548 | 50 ft | 59 kts | 333° |
| 2026-05-04 15:42 | 53.63636 | 9.99079 | 50 ft | 115 kts | 333° |
| 2026-05-04 15:42 | 53.64482 | 9.98339 | 198 ft | 148 kts | 330° |
| 2026-05-04 15:42 | 53.65382 | 9.97565 | 761 ft | 145 kts | 331° |
| 2026-05-04 15:42 | 53.66283 | 9.96797 | 1334 ft | 146 kts | 330° |
| 2026-05-04 15:43 | 53.67252 | 9.95971 | 1677 ft | 166 kts | 332° |
| 2026-05-04 15:43 | 53.68356 | 9.95030 | 1995 ft | 189 kts | 331° |
| 2026-05-04 15:43 | 53.69600 | 9.93965 | 2469 ft | 208 kts | 330° |
| 2026-05-04 15:43 | 53.70862 | 9.92745 | 3297 ft | 210 kts | 316° |
| 2026-05-04 15:44 | 53.71544 | 9.90620 | 4059 ft | 215 kts | 277° |
| 2026-05-04 15:44 | 53.71339 | 9.87998 | 4536 ft | 240 kts | 255° |
| 2026-05-04 15:44 | 53.70814 | 9.85229 | 5298 ft | 252 kts | 251° |
| 2026-05-04 15:44 | 53.70216 | 9.82407 | 6251 ft | 257 kts | 251° |
| 2026-05-04 15:45 | 53.69605 | 9.79556 | 7202 ft | 260 kts | 250° |
| 2026-05-04 15:45 | 53.68996 | 9.76671 | 8143 ft | 263 kts | 250° |
| 2026-05-04 15:45 | 53.68395 | 9.73747 | 9091 ft | 265 kts | 251° |
| 2026-05-04 15:45 | 53.67797 | 9.70781 | 10001 ft | 269 kts | 251° |
| 2026-05-04 15:46 | 53.67199 | 9.67778 | 10781 ft | 274 kts | 251° |
| 2026-05-04 15:46 | 53.66568 | 9.64600 | 11106 ft | 297 kts | 251° |
| 2026-05-04 15:46 | 53.65895 | 9.61214 | 11633 ft | 309 kts | 252° |
| 2026-05-04 15:46 | 53.65100 | 9.57828 | 12360 ft | 314 kts | 243° |
| 2026-05-04 15:47 | 53.63881 | 9.54731 | 13131 ft | 319 kts | 236° |
| 2026-05-04 15:47 | 53.62573 | 9.51686 | 13879 ft | 323 kts | 236° |
| 2026-05-04 15:47 | 53.61269 | 9.48645 | 14521 ft | 326 kts | 236° |
| 2026-05-04 15:47 | 53.59934 | 9.45528 | 15201 ft | 329 kts | 236° |
| 2026-05-04 15:48 | 53.58571 | 9.42350 | 15902 ft | 332 kts | 236° |
| 2026-05-04 15:48 | 53.57673 | 9.40261 | 16368 ft | 333 kts | 236° |
| 2026-05-04 15:48 | 53.54480 | 9.32861 | 17988 ft | 339 kts | 236° |
| 2026-05-04 15:49 | 53.53085 | 9.29628 | 18613 ft | 342 kts | 236° |
| 2026-05-04 15:49 | 53.52156 | 9.27475 | 19016 ft | 343 kts | 236° |
| 2026-05-04 15:49 | 53.50746 | 9.24216 | 19640 ft | 345 kts | 236° |
| 2026-05-04 15:49 | 53.49329 | 9.20947 | 20266 ft | 347 kts | 236° |
| 2026-05-04 15:50 | 53.47904 | 9.17667 | 20900 ft | 348 kts | 236° |
| 2026-05-04 15:50 | 53.46473 | 9.14375 | 21519 ft | 350 kts | 235° |
| 2026-05-04 15:50 | 53.45033 | 9.11067 | 22120 ft | 352 kts | 235° |
| 2026-05-04 15:50 | 53.43586 | 9.07745 | 22719 ft | 354 kts | 235° |
| 2026-05-04 15:51 | 53.42131 | 9.04405 | 23314 ft | 356 kts | 235° |
| 2026-05-04 15:51 | 53.40667 | 9.01052 | 23842 ft | 357 kts | 235° |
| 2026-05-04 15:51 | 53.39193 | 8.97680 | 24275 ft | 360 kts | 234° |
| 2026-05-04 15:51 | 53.37704 | 8.94281 | 24725 ft | 363 kts | 234° |
| 2026-05-04 15:52 | 53.36207 | 8.90870 | 25200 ft | 364 kts | 234° |
| 2026-05-04 15:52 | 53.34814 | 8.87322 | 25673 ft | 365 kts | 242° |
| 2026-05-04 15:52 | 53.33809 | 8.83419 | 26152 ft | 367 kts | 249° |
| 2026-05-04 15:52 | 53.32927 | 8.79414 | 26623 ft | 368 kts | 249° |
| 2026-05-04 15:53 | 53.32040 | 8.75382 | 27096 ft | 369 kts | 249° |
| 2026-05-04 15:53 | 53.31149 | 8.71345 | 27547 ft | 371 kts | 249° |
| 2026-05-04 15:53 | 53.30252 | 8.67293 | 27999 ft | 373 kts | 249° |
| 2026-05-04 15:53 | 53.29352 | 8.63218 | 28462 ft | 374 kts | 249° |
| 2026-05-04 15:54 | 53.28455 | 8.59124 | 28925 ft | 376 kts | 249° |
| 2026-05-04 15:54 | 53.27555 | 8.55004 | 29388 ft | 378 kts | 249° |
| 2026-05-04 15:54 | 53.26651 | 8.50876 | 29836 ft | 379 kts | 249° |
| 2026-05-04 15:54 | 53.25769 | 8.46713 | 30230 ft | 381 kts | 250° |
| 2026-05-04 15:55 | 53.24955 | 8.42529 | 30580 ft | 383 kts | 251° |
| 2026-05-04 15:55 | 53.24168 | 8.38266 | 30908 ft | 386 kts | 251° |
| 2026-05-04 15:55 | 53.23386 | 8.33949 | 31220 ft | 388 kts | 252° |
| 2026-05-04 15:55 | 53.22603 | 8.29629 | 31527 ft | 390 kts | 251° |
| 2026-05-04 15:56 | 53.21804 | 8.25294 | 31907 ft | 390 kts | 251° |
| 2026-05-04 15:56 | 53.20996 | 8.20982 | 32350 ft | 389 kts | 251° |
| 2026-05-04 15:56 | 53.20177 | 8.16683 | 32800 ft | 389 kts | 251° |
| 2026-05-04 15:56 | 53.19351 | 8.12390 | 33223 ft | 388 kts | 251° |
| 2026-05-04 15:57 | 53.18526 | 8.08097 | 33652 ft | 388 kts | 251° |
| 2026-05-04 15:57 | 53.17712 | 8.03816 | 34064 ft | 387 kts | 252° |
| 2026-05-04 15:57 | 53.16902 | 7.99526 | 34411 ft | 388 kts | 252° |
| 2026-05-04 15:57 | 53.16093 | 7.95228 | 34717 ft | 389 kts | 252° |
| 2026-05-04 15:58 | 53.15283 | 7.90925 | 35008 ft | 390 kts | 252° |
| 2026-05-04 15:58 | 53.14470 | 7.86615 | 35294 ft | 391 kts | 252° |
| 2026-05-04 15:58 | 53.13648 | 7.82280 | 35567 ft | 392 kts | 252° |
| 2026-05-04 15:58 | 53.12823 | 7.77946 | 35830 ft | 393 kts | 252° |
| 2026-05-04 15:59 | 53.11990 | 7.73605 | 36090 ft | 394 kts | 252° |
| 2026-05-04 15:59 | 53.11162 | 7.69301 | 36344 ft | 395 kts | 252° |
| 2026-05-04 15:59 | 53.10269 | 7.64970 | 36593 ft | 397 kts | 248° |
| 2026-05-04 15:59 | 53.09193 | 7.60735 | 36811 ft | 398 kts | 247° |
| 2026-05-04 16:00 | 53.08109 | 7.56488 | 37056 ft | 399 kts | 247° |
| 2026-05-04 16:00 | 53.07023 | 7.52232 | 37278 ft | 400 kts | 247° |
| 2026-05-04 16:00 | 53.05935 | 7.47969 | 37549 ft | 401 kts | 248° |
| 2026-05-04 16:00 | 53.04843 | 7.43695 | 37826 ft | 402 kts | 247° |
| 2026-05-04 16:01 | 53.03748 | 7.39413 | 37967 ft | 404 kts | 247° |
| 2026-05-04 16:01 | 53.02644 | 7.35110 | 37996 ft | 404 kts | 247° |
| 2026-05-04 16:01 | 53.00438 | 7.26531 | 37983 ft | 403 kts | 247° |
| 2026-05-04 16:02 | 52.98222 | 7.17983 | 37985 ft | 403 kts | 247° |
| 2026-05-04 16:03 | 52.94894 | 7.05165 | 37984 ft | 404 kts | 246° |
| 2026-05-04 16:03 | 52.92665 | 6.96601 | 37989 ft | 404 kts | 246° |
| 2026-05-04 16:04 | 52.90425 | 6.88061 | 37983 ft | 404 kts | 246° |
| 2026-05-04 16:04 | 52.87053 | 6.75263 | 37983 ft | 404 kts | 246° |
| 2026-05-04 16:05 | 52.84801 | 6.66733 | 37984 ft | 404 kts | 246° |
| 2026-05-04 16:06 | 52.81429 | 6.54013 | 37983 ft | 404 kts | 245° |
| 2026-05-04 16:07 | 52.76884 | 6.37021 | 37965 ft | 404 kts | 245° |
| 2026-05-04 16:08 | 52.72316 | 6.20056 | 37987 ft | 405 kts | 245° |
| 2026-05-04 16:09 | 52.66568 | 5.98883 | 37983 ft | 405 kts | 245° |
| 2026-05-04 16:10 | 52.61923 | 5.81928 | 37956 ft | 407 kts | 244° |
| 2026-05-04 16:11 | 52.57251 | 5.64969 | 37991 ft | 407 kts | 244° |
| 2026-05-04 16:12 | 52.50208 | 5.39669 | 37995 ft | 408 kts | 244° |
| 2026-05-04 16:13 | 52.45456 | 5.22759 | 37990 ft | 409 kts | 244° |
| 2026-05-04 16:14 | 52.40666 | 5.05850 | 37957 ft | 409 kts | 243° |
| 2026-05-04 16:16 | 52.34656 | 4.84734 | 37960 ft | 410 kts | 243° |
| 2026-05-04 16:17 | 52.28566 | 4.63610 | 37953 ft | 411 kts | 243° |
| 2026-05-04 16:18 | 52.23675 | 4.46720 | 37965 ft | 411 kts | 243° |
| 2026-05-04 16:19 | 52.17512 | 4.25658 | 37971 ft | 412 kts | 242° |
| 2026-05-04 16:20 | 52.11418 | 4.05012 | 37986 ft | 413 kts | 242° |
| 2026-05-04 16:22 | 52.05166 | 3.84014 | 37989 ft | 413 kts | 242° |
| 2026-05-04 16:23 | 51.97582 | 3.58798 | 37992 ft | 415 kts | 242° |
| 2026-05-04 16:25 | 51.89930 | 3.33548 | 38004 ft | 417 kts | 242° |
| 2026-05-04 16:26 | 51.85089 | 3.16489 | 38004 ft | 420 kts | 253° |
| 2026-05-04 16:26 | 51.83971 | 3.02367 | 37941 ft | 424 kts | 261° |
| 2026-05-04 16:27 | 51.83348 | 2.92894 | 37386 ft | 423 kts | 261° |
| 2026-05-04 16:28 | 51.82406 | 2.78731 | 35973 ft | 419 kts | 261° |
| 2026-05-04 16:28 | 51.81463 | 2.64860 | 34710 ft | 409 kts | 260° |
| 2026-05-04 16:29 | 51.80219 | 2.46850 | 32926 ft | 395 kts | 260° |
| 2026-05-04 16:30 | 51.79402 | 2.35260 | 31804 ft | 385 kts | 260° |
| 2026-05-04 16:31 | 51.78791 | 2.26747 | 31001 ft | 378 kts | 260° |
| 2026-05-04 16:31 | 51.77950 | 2.14198 | 29801 ft | 371 kts | 261° |
| 2026-05-04 16:32 | 51.77267 | 2.01943 | 28719 ft | 361 kts | 261° |
| 2026-05-04 16:33 | 51.76798 | 1.93963 | 28031 ft | 353 kts | 261° |
| 2026-05-04 16:33 | 51.76322 | 1.86141 | 27331 ft | 346 kts | 261° |
| 2026-05-04 16:34 | 51.75847 | 1.78490 | 26635 ft | 339 kts | 261° |
| 2026-05-04 16:34 | 51.75614 | 1.74721 | 26291 ft | 336 kts | 261° |
| 2026-05-04 16:35 | 51.74921 | 1.63610 | 25236 ft | 328 kts | 261° |
| 2026-05-04 16:35 | 51.74204 | 1.52394 | 23827 ft | 344 kts | 261° |
| 2026-05-04 16:36 | 51.73955 | 1.48535 | 23260 ft | 346 kts | 262° |
| 2026-05-04 16:36 | 51.73452 | 1.40818 | 22206 ft | 345 kts | 262° |
| 2026-05-04 16:37 | 51.72951 | 1.33123 | 21181 ft | 344 kts | 262° |
| 2026-05-04 16:37 | 51.72706 | 1.29336 | 20666 ft | 344 kts | 262° |
| 2026-05-04 16:37 | 51.72201 | 1.21621 | 19630 ft | 344 kts | 262° |
| 2026-05-04 16:38 | 51.71693 | 1.14011 | 18611 ft | 344 kts | 262° |
| 2026-05-04 16:39 | 51.70910 | 1.02558 | 17018 ft | 340 kts | 262° |
| 2026-05-04 16:39 | 51.70392 | 0.95022 | 16049 ft | 335 kts | 262° |
| 2026-05-04 16:40 | 51.69882 | 0.87626 | 15179 ft | 328 kts | 262° |
| 2026-05-04 16:40 | 51.69374 | 0.80345 | 14269 ft | 324 kts | 263° |
| 2026-05-04 16:41 | 51.68866 | 0.73154 | 13347 ft | 320 kts | 263° |
| 2026-05-04 16:41 | 51.68113 | 0.62621 | 12037 ft | 311 kts | 263° |
| 2026-05-04 16:42 | 51.67378 | 0.52366 | 10782 ft | 304 kts | 263° |
| 2026-05-04 16:43 | 51.66890 | 0.45669 | 10148 ft | 293 kts | 262° |
| 2026-05-04 16:43 | 51.66424 | 0.39365 | 9199 ft | 279 kts | 262° |
| 2026-05-04 16:43 | 51.66195 | 0.36300 | 8774 ft | 274 kts | 262° |
| 2026-05-04 16:44 | 51.65279 | 0.24060 | 7381 ft | 273 kts | 262° |
| 2026-05-04 16:45 | 51.64833 | 0.18087 | 7133 ft | 268 kts | 262° |
| 2026-05-04 16:46 | 51.64845 | 0.09083 | 7025 ft | 269 kts | 272° |
| 2026-05-04 16:46 | 51.65063 | 0.03054 | 7016 ft | 269 kts | 271° |
| 2026-05-04 16:47 | 51.63885 | -0.02531 | 6062 ft | 269 kts | 226° |
| 2026-05-04 16:47 | 51.60667 | -0.05593 | 4880 ft | 266 kts | 206° |
| 2026-05-04 16:48 | 51.55956 | -0.09305 | 3934 ft | 240 kts | 206° |
| 2026-05-04 16:48 | 51.54459 | -0.10486 | 3648 ft | 239 kts | 206° |
| 2026-05-04 16:49 | 51.51567 | -0.12772 | 3327 ft | 228 kts | 206° |
| 2026-05-04 16:49 | 51.48705 | -0.15057 | 3133 ft | 228 kts | 209° |
| 2026-05-04 16:50 | 51.46817 | -0.18639 | 3009 ft | 197 kts | 252° |
| 2026-05-04 16:50 | 51.46534 | -0.22714 | 2660 ft | 179 kts | 272° |
| 2026-05-04 16:51 | 51.46526 | -0.26635 | 2202 ft | 172 kts | 273° |
| 2026-05-04 16:51 | 51.46523 | -0.28545 | 1970 ft | 171 kts | 274° |
| 2026-05-04 16:51 | 51.46517 | -0.32343 | 1509 ft | 165 kts | 273° |
| 2026-05-04 16:52 | 51.46510 | -0.35642 | 1102 ft | 140 kts | 275° |
| 2026-05-04 16:52 | 51.46507 | -0.37194 | 908 ft | 138 kts | 274° |
| 2026-05-04 16:53 | 51.46501 | -0.40238 | 520 ft | 136 kts | 274° |
| 2026-05-04 16:53 | 51.46493 | -0.44628 | 89 ft | 113 kts | 270° |
| 2026-05-04 16:54 | 51.46490 | -0.45632 | 82 ft | 65 kts | 269° |
| 2026-05-04 16:55 | 51.46572 | -0.46831 | 90 ft | 9 kts | 301° |
| 2026-05-04 16:55 | 51.46659 | -0.46908 | 87 ft | 9 kts | 281° |
| 2026-05-04 16:56 | 51.46657 | -0.47214 | 83 ft | 19 kts | 270° |
| 2026-05-04 16:56 | 51.46653 | -0.47953 | 83 ft | 22 kts | 269° |
| 2026-05-04 16:57 | 51.46654 | -0.48164 | 86 ft | 18 kts | 270° |
| 2026-05-04 16:57 | 51.46686 | -0.48470 | 87 ft | 14 kts | 349° |
| 2026-05-04 16:58 | 51.47021 | -0.48474 | 85 ft | 15 kts | 358° |
| 2026-05-04 16:58 | 51.47140 | -0.48476 | 85 ft | 17 kts | 360° |
| 2026-05-04 16:59 | 51.47274 | -0.48503 | 87 ft | 7 kts | 282° |
| 2026-05-04 17:00 | 51.47271 | -0.48576 | 85 ft | 0 kts | 269° |